Time;durP1;ratioP1;P1;durP2;ratioP2;P2;SDS_P1;SDS_P2;PMS_P1;PMS_P2;Temp;Humidity;BMP_temperature;BMP_pressure;BME280_temperature;BME280_humidity;BME280_pressure;Samples;Min_cycle;Max_cycle;Signal;HPM_P1;HPM_P2
2021/05/15 00:00:28;;;;;;;32.33;17.50;;;8.60;97.30;;;;;;4957389;28;21001;-85
2021/05/15 00:02:55;;;;;;;24.43;15.67;;;8.60;97.30;;;;;;4956623;28;20183;-84
2021/05/15 00:05:21;;;;;;;28.43;16.50;;;8.60;97.30;;;;;;4955969;28;20512;-84
2021/05/15 00:07:47;;;;;;;31.37;17.30;;;8.60;97.30;;;;;;4973475;28;20433;-84
2021/05/15 00:10:12;;;;;;;27.77;16.00;;;8.60;97.30;;;;;;4972833;28;20410;-85
2021/05/15 00:12:38;;;;;;;31.47;17.10;;;8.50;97.30;;;;;;4958301;28;20653;-84
2021/05/15 00:15:06;;;;;;;30.53;17.00;;;8.50;97.30;;;;;;4958663;28;20215;-85
2021/05/15 00:17:33;;;;;;;31.57;17.00;;;8.50;97.30;;;;;;4959392;28;20437;-85
2021/05/15 00:19:58;;;;;;;27.53;16.80;;;8.60;97.30;;;;;;4958648;28;20813;-87
2021/05/15 00:22:24;;;;;;;27.63;15.40;;;8.60;97.30;;;;;;4959222;28;20433;-85
2021/05/15 00:24:49;;;;;;;27.40;16.03;;;8.60;97.30;;;;;;4958640;28;20211;-84
2021/05/15 00:27:15;;;;;;;28.13;16.70;;;8.60;97.30;;;;;;4959046;28;20181;-86
2021/05/15 00:29:40;;;;;;;28.70;15.00;;;8.50;97.30;;;;;;4958784;28;20202;-85
2021/05/15 00:32:06;;;;;;;29.97;15.83;;;8.50;97.30;;;;;;4958762;28;20187;-84
2021/05/15 00:34:31;;;;;;;26.20;14.83;;;8.50;97.30;;;;;;4958280;28;20209;-87
2021/05/15 00:36:57;;;;;;;26.50;15.80;;;8.50;97.30;;;;;;4958840;28;20653;-84
2021/05/15 00:39:22;;;;;;;29.47;17.30;;;8.50;97.30;;;;;;4958525;28;20186;-85
2021/05/15 00:41:48;;;;;;;28.67;15.40;;;8.50;97.30;;;;;;4975729;28;20232;-85
2021/05/15 00:44:30;;;;;;;28.13;16.77;;;8.50;97.30;;;;;;4975372;28;20190;-85
2021/05/15 00:46:56;;;;;;;25.83;16.07;;;8.50;97.30;;;;;;4958294;28;20434;-86
2021/05/15 00:49:21;;;;;;;28.63;16.70;;;8.50;97.30;;;;;;4975409;28;20410;-85
2021/05/15 00:51:47;;;;;;;34.17;17.87;;;8.50;97.30;;;;;;4958129;28;20442;-86
2021/05/15 00:54:13;;;;;;;31.97;17.53;;;8.50;97.30;;;;;;4958018;28;20174;-86
2021/05/15 00:56:40;;;;;;;30.30;16.97;;;8.50;97.30;;;;;;4976043;28;20496;-85
2021/05/15 00:59:05;;;;;;;27.07;15.93;;;8.60;97.30;;;;;;4975642;28;20166;-86
2021/05/15 01:01:32;;;;;;;29.30;16.43;;;8.60;97.30;;;;;;4958365;28;20414;-85
2021/05/15 01:03:57;;;;;;;27.00;15.33;;;8.60;97.30;;;;;;4958000;28;20194;-85
2021/05/15 01:06:23;;;;;;;28.13;16.10;;;8.60;97.30;;;;;;4958535;28;20936;-86
2021/05/15 01:08:48;;;;;;;21.17;13.43;;;8.60;97.30;;;;;;4975760;28;20171;-85
2021/05/15 01:11:16;;;;;;;21.67;13.07;;;8.50;97.30;;;;;;4958204;28;20183;-85
2021/05/15 01:13:58;;;;;;;23.67;13.37;;;8.50;97.30;;;;;;4958119;28;20208;-85
2021/05/15 01:16:24;;;;;;;21.07;13.73;;;8.40;97.30;;;;;;4942409;28;20434;-85
2021/05/15 01:18:50;;;;;;;23.10;13.57;;;8.30;97.30;;;;;;4958286;28;20758;-85
2021/05/15 01:21:16;;;;;;;26.20;15.63;;;8.20;97.30;;;;;;4958212;28;20850;-85
2021/05/15 01:23:42;;;;;;;25.30;15.40;;;8.20;97.30;;;;;;4957878;28;20819;-85
2021/05/15 01:26:13;;;;;;;25.77;16.27;;;8.20;97.30;;;;;;4958116;28;20434;-85
2021/05/15 01:28:39;;;;;;;24.37;14.33;;;8.20;97.30;;;;;;4958607;28;20182;-85
2021/05/15 01:31:05;;;;;;;25.73;14.80;;;8.20;97.30;;;;;;4976049;28;20421;-85
2021/05/15 01:33:31;;;;;;;23.20;13.97;;;8.20;97.30;;;;;;4959437;28;20429;-85
2021/05/15 01:35:56;;;;;;;26.37;15.57;;;8.20;97.30;;;;;;4959250;28;20446;-86
2021/05/15 01:38:22;;;;;;;21.03;13.57;;;8.10;97.30;;;;;;4959530;28;20178;-86
2021/05/15 01:40:47;;;;;;;21.60;12.70;;;8.10;97.30;;;;;;4959594;28;20241;-85
2021/05/15 01:43:18;;;;;;;22.67;14.17;;;8.10;97.30;;;;;;4976430;28;20170;-85
2021/05/15 01:45:44;;;;;;;25.37;14.13;;;8.00;97.30;;;;;;4956194;29;20230;-88
2021/05/15 01:48:15;;;;;;;22.47;13.80;;;8.00;97.30;;;;;;4957176;29;21041;-85
2021/05/15 01:50:41;;;;;;;20.43;13.10;;;7.90;97.30;;;;;;4956194;29;20183;-85
2021/05/15 01:53:06;;;;;;;24.43;14.27;;;7.90;97.30;;;;;;4955936;29;20427;-85
2021/05/15 01:55:32;;;;;;;23.37;13.40;;;7.90;97.30;;;;;;4957282;29;20203;-85
2021/05/15 01:57:57;;;;;;;17.20;12.80;;;7.90;97.30;;;;;;4949794;29;20214;-86
2021/05/15 02:00:23;;;;;;;22.77;13.20;;;7.80;97.30;;;;;;4954815;29;20228;-86
2021/05/15 02:02:49;;;;;;;22.97;12.60;;;7.80;97.30;;;;;;4956890;29;20171;-86
2021/05/15 02:05:14;;;;;;;21.50;13.00;;;7.70;97.30;;;;;;4955657;29;20301;-86
2021/05/15 02:07:40;;;;;;;24.10;13.43;;;7.70;97.30;;;;;;4955053;29;20168;-88
2021/05/15 02:10:06;;;;;;;21.73;13.17;;;7.70;97.30;;;;;;4954669;29;20372;-88
2021/05/15 02:12:31;;;;;;;22.87;13.40;;;7.60;97.30;;;;;;4954117;29;20266;-85
2021/05/15 02:14:57;;;;;;;28.40;15.47;;;7.60;97.30;;;;;;4954552;29;20529;-85
2021/05/15 02:17:22;;;;;;;21.93;13.20;;;7.50;97.30;;;;;;4953851;29;20174;-85
2021/05/15 02:19:47;;;;;;;21.97;12.60;;;7.50;97.30;;;;;;4953580;29;20554;-85
2021/05/15 02:22:13;;;;;;;24.00;12.60;;;7.50;97.30;;;;;;4953307;29;20187;-86
2021/05/15 02:24:38;;;;;;;19.80;11.60;;;7.50;97.30;;;;;;4953453;29;20218;-85
2021/05/15 02:27:04;;;;;;;18.07;11.43;;;7.40;97.30;;;;;;4953380;29;20208;-85
2021/05/15 02:29:30;;;;;;;19.27;13.17;;;7.40;97.30;;;;;;4953182;29;20182;-85
2021/05/15 02:31:55;;;;;;;21.50;13.07;;;7.30;97.30;;;;;;4953935;29;20179;-86
2021/05/15 02:34:22;;;;;;;21.80;12.70;;;;;;;;;;4953710;28;20569;-85
2021/05/15 02:36:47;;;;;;;22.57;12.50;;;7.30;97.30;;;;;;4955432;29;20804;-85
2021/05/15 02:39:13;;;;;;;22.70;13.03;;;7.20;97.30;;;;;;4955437;29;20419;-85
2021/05/15 02:41:38;;;;;;;21.90;12.60;;;7.20;97.30;;;;;;4954204;29;20179;-86
2021/05/15 02:44:04;;;;;;;23.23;12.77;;;7.20;97.30;;;;;;4953411;29;20692;-85
2021/05/15 02:46:29;;;;;;;24.73;11.63;;;7.10;97.30;;;;;;4956734;28;20206;-86
2021/05/15 02:48:55;;;;;;;21.43;12.87;;;7.10;97.30;;;;;;4957442;28;20186;-85
2021/05/15 02:51:20;;;;;;;20.20;11.97;;;7.00;97.30;;;;;;4974013;28;20233;-85
2021/05/15 02:53:46;;;;;;;19.97;12.00;;;7.00;97.30;;;;;;4956231;28;20281;-85
2021/05/15 02:56:11;;;;;;;23.23;12.97;;;6.90;97.30;;;;;;4955593;28;20255;-85
2021/05/15 02:58:37;;;;;;;22.57;13.27;;;6.90;97.30;;;;;;4955750;28;20186;-88
2021/05/15 03:01:02;;;;;;;23.23;12.37;;;7.00;97.30;;;;;;4956382;28;20186;-85
2021/05/15 03:03:28;;;;;;;23.97;13.43;;;7.00;97.30;;;;;;4954820;28;20178;-85
2021/05/15 03:05:53;;;;;;;28.20;14.40;;;7.10;97.30;;;;;;4955257;28;20117;-85
2021/05/15 03:08:19;;;;;;;25.20;13.20;;;7.10;97.30;;;;;;4955553;28;20614;-86
2021/05/15 03:10:44;;;;;;;25.07;13.43;;;7.10;97.30;;;;;;4955716;28;20324;-85
2021/05/15 03:13:10;;;;;;;20.40;12.90;;;7.10;97.30;;;;;;4973131;28;20305;-84
2021/05/15 03:15:35;;;;;;;26.33;13.00;;;7.10;97.30;;;;;;4955660;28;19949;-83
2021/05/15 03:18:01;;;;;;;25.10;13.83;;;7.10;97.30;;;;;;4956273;28;20631;-83
2021/05/15 03:20:26;;;;;;;25.40;12.70;;;7.10;97.30;;;;;;4955933;28;20184;-83
2021/05/15 03:22:52;;;;;;;26.10;14.23;;;7.00;97.30;;;;;;4954382;28;20664;-85
2021/05/15 03:25:19;;;;;;;25.93;13.00;;;7.00;97.30;;;;;;4955022;28;20269;-85
2021/05/15 03:27:45;;;;;;;26.77;14.00;;;7.00;97.30;;;;;;4956283;28;20897;-84
2021/05/15 03:30:11;;;;;;;22.23;13.57;;;7.00;97.30;;;;;;4955706;28;20461;-84
2021/05/15 03:32:40;;;;;;;25.43;14.20;;;7.10;97.30;;;;;;4955579;28;20205;-85
2021/05/15 03:35:07;;;;;;;25.60;13.40;;;7.10;97.30;;;;;;4955825;28;20817;-84
2021/05/15 03:37:32;;;;;;;26.70;13.90;;;7.20;97.30;;;;;;4972917;28;20425;-83
2021/05/15 03:39:58;;;;;;;24.60;13.10;;;7.20;97.30;;;;;;4955479;28;20422;-83
2021/05/15 03:42:24;;;;;;;21.30;13.10;;;7.20;97.30;;;;;;4956091;28;20191;-84
2021/05/15 03:44:50;;;;;;;20.90;11.63;;;7.20;97.30;;;;;;4990440;23;20209;-86
2021/05/15 03:47:15;;;;;;;20.90;12.20;;;7.20;97.30;;;;;;4958310;28;20528;-87
2021/05/15 03:49:41;;;;;;;20.73;11.60;;;7.10;97.30;;;;;;4960564;28;20273;-88
2021/05/15 03:52:06;;;;;;;25.00;13.10;;;7.10;97.30;;;;;;4960902;28;20174;-87
2021/05/15 03:54:32;;;;;;;24.00;13.30;;;7.10;97.30;;;;;;4961008;28;20261;-87
2021/05/15 03:56:57;;;;;;;23.47;12.70;;;7.00;97.30;;;;;;4960716;28;20174;-87
2021/05/15 03:59:23;;;;;;;25.60;13.60;;;7.00;97.30;;;;;;4960642;28;20197;-88
2021/05/15 04:01:49;;;;;;;26.33;13.30;;;7.00;97.30;;;;;;4961231;28;20181;-87
2021/05/15 04:04:15;;;;;;;22.77;13.80;;;7.10;97.30;;;;;;4978152;28;20959;-87
2021/05/15 04:06:40;;;;;;;24.27;14.23;;;7.10;97.30;;;;;;4960380;28;20962;-87
2021/05/15 04:09:06;;;;;;;22.33;12.07;;;7.10;97.30;;;;;;4960835;28;20178;-87
2021/05/15 04:11:36;;;;;;;19.07;12.10;;;7.10;97.30;;;;;;4960780;28;20175;-87
2021/05/15 04:14:10;;;;;;;20.97;11.90;;;7.10;97.30;;;;;;4977926;28;20256;-87
2021/05/15 04:16:59;;;;;;;26.53;14.03;;;7.20;97.30;;;;;;4960283;28;20437;-87
2021/05/15 04:19:25;;;;;;;20.90;12.40;;;7.20;97.30;;;;;;4960370;28;20520;-87
2021/05/15 04:21:51;;;;;;;22.43;12.37;;;7.30;97.30;;;;;;4960359;28;20445;-87
2021/05/15 04:24:16;;;;;;;23.93;12.10;;;7.40;97.30;;;;;;4960869;28;20198;-85
2021/05/15 04:26:42;;;;;;;30.07;13.90;;;7.40;97.30;;;;;;4959897;28;20437;-88
2021/05/15 04:29:07;;;;;;;24.83;12.80;;;7.40;97.30;;;;;;4977018;28;20258;-87
2021/05/15 04:31:33;;;;;;;21.93;14.47;;;7.40;97.30;;;;;;4959089;28;20342;-87
2021/05/15 04:33:58;;;;;;;21.47;13.00;;;7.50;97.30;;;;;;4976414;28;20189;-88
2021/05/15 04:36:24;;;;;;;23.30;12.10;;;7.60;97.30;;;;;;4959065;28;20288;-88
2021/05/15 04:38:52;;;;;;;25.40;13.40;;;7.70;97.30;;;;;;4958398;28;20573;-87
2021/05/15 04:41:20;;;;;;;22.40;12.53;;;7.70;97.30;;;;;;4958305;28;20556;-87
2021/05/15 04:43:47;;;;;;;16.03;11.33;;;7.80;97.30;;;;;;4957399;28;20449;-87
2021/05/15 04:46:13;;;;;;;20.53;12.03;;;7.90;97.30;;;;;;4957516;28;20456;-87
2021/05/15 04:48:38;;;;;;;19.50;10.70;;;8.00;97.30;;;;;;4958009;28;20504;-87
2021/05/15 04:51:05;;;;;;;18.97;11.20;;;8.20;97.30;;;;;;4957755;28;20872;-87
2021/05/15 04:53:31;;;;;;;18.03;10.03;;;8.30;97.30;;;;;;4957473;28;20202;-87
2021/05/15 04:55:57;;;;;;;17.70;10.60;;;8.40;97.30;;;;;;4957822;28;20477;-87
2021/05/15 04:58:22;;;;;;;16.37;9.67;;;8.60;97.30;;;;;;4957253;28;20414;-87
2021/05/15 05:00:48;;;;;;;16.70;10.13;;;8.70;97.30;;;;;;4956720;28;20289;-88
2021/05/15 05:03:17;;;;;;;13.23;9.10;;;8.80;97.30;;;;;;4957402;28;20175;-86
2021/05/15 05:05:43;;;;;;;15.03;10.13;;;8.90;97.30;;;;;;4974624;28;20242;-86
2021/05/15 05:08:09;;;;;;;15.23;9.23;;;9.00;97.30;;;;;;4957249;28;20476;-87
2021/05/15 05:10:34;;;;;;;14.27;8.80;;;9.10;97.30;;;;;;4957476;28;20429;-88
2021/05/15 05:13:04;;;;;;;14.07;7.93;;;9.20;97.30;;;;;;4975318;28;20175;-87
2021/05/15 05:15:29;;;;;;;10.63;7.27;;;9.30;97.30;;;;;;4958633;28;20289;-87
2021/05/15 05:17:55;;;;;;;12.30;8.20;;;9.40;97.30;;;;;;4959058;28;20452;-89
2021/05/15 05:20:20;;;;;;;16.07;7.87;;;9.50;97.30;;;;;;4976046;28;20191;-87
2021/05/15 05:23:09;;;;;;;12.20;7.53;;;9.50;97.30;;;;;;4974801;28;20181;-87
2021/05/15 05:25:37;;;;;;;13.47;7.87;;;9.70;97.30;;;;;;4957513;28;20202;-87
2021/05/15 05:28:13;;;;;;;9.57;6.00;;;9.80;97.30;;;;;;4957077;28;20422;-87
2021/05/15 05:30:39;;;;;;;12.10;6.30;;;9.90;97.30;;;;;;4959768;28;20429;-87
2021/05/15 05:33:06;;;;;;;7.47;5.47;;;10.00;97.30;;;;;;4960040;28;20465;-88
2021/05/15 05:35:38;;;;;;;8.53;6.57;;;10.10;97.30;;;;;;4957157;28;20299;-87
2021/05/15 05:38:08;;;;;;;7.93;6.50;;;10.20;97.30;;;;;;4957326;28;20485;-87
2021/05/15 05:40:50;;;;;;;7.60;5.20;;;10.30;97.30;;;;;;4958748;28;20508;-87
2021/05/15 05:43:17;;;;;;;9.07;5.50;;;10.40;97.30;;;;;;4958502;28;20414;-87
2021/05/15 05:45:50;;;;;;;7.00;4.70;;;10.60;97.30;;;;;;4958895;28;20499;-88
2021/05/15 05:48:18;;;;;;;6.20;4.33;;;10.70;97.30;;;;;;4959149;28;20428;-86
2021/05/15 05:50:47;;;;;;;7.00;4.43;;;10.80;97.30;;;;;;4958981;28;20418;-87
2021/05/15 05:53:18;;;;;;;6.93;4.97;;;11.00;97.30;;;;;;4959256;28;20517;-87
2021/05/15 05:55:46;;;;;;;9.07;4.40;;;11.10;97.30;;;;;;4961156;28;20454;-87
2021/05/15 05:58:19;;;;;;;5.80;3.87;;;11.30;97.30;;;;;;4962815;28;20449;-87
2021/05/15 06:00:47;;;;;;;11.63;5.20;;;11.40;97.30;;;;;;4973842;28;20441;-88
2021/05/15 06:03:17;;;;;;;5.90;4.23;;;11.50;97.30;;;;;;4962225;28;20430;-88
2021/05/15 06:05:48;;;;;;;6.73;3.90;;;11.60;97.30;;;;;;4961694;28;20477;-88
2021/05/15 06:08:16;;;;;;;4.97;3.50;;;11.70;97.30;;;;;;4962419;28;20406;-87
2021/05/15 06:10:54;;;;;;;5.60;3.53;;;11.80;97.30;;;;;;4961657;28;20418;-87
2021/05/15 06:13:20;;;;;;;4.20;3.00;;;11.90;97.30;;;;;;4963203;28;20489;-88
2021/05/15 06:15:45;;;;;;;7.43;3.60;;;12.00;97.30;;;;;;4961031;28;20481;-87
2021/05/15 06:18:11;;;;;;;4.47;3.40;;;12.10;97.30;;;;;;4959681;28;20190;-87
2021/05/15 06:20:37;;;;;;;4.50;3.50;;;12.30;97.30;;;;;;4957954;28;20185;-87
2021/05/15 06:23:03;;;;;;;5.23;3.20;;;12.50;97.30;;;;;;4955860;28;20221;-86
2021/05/15 06:25:29;;;;;;;8.37;3.23;;;12.60;97.30;;;;;;4972564;28;20988;-87
2021/05/15 06:27:54;;;;;;;4.10;3.33;;;12.70;97.30;;;;;;4955873;28;20314;-87
2021/05/15 06:30:21;;;;;;;2.90;2.70;;;12.80;97.30;;;;;;4954323;28;20174;-86
2021/05/15 06:32:46;;;;;;;5.10;2.70;;;12.90;97.30;;;;;;4955765;28;20506;-87
2021/05/15 06:35:15;;;;;;;4.67;3.40;;;12.90;97.30;;;;;;4955787;28;21034;-85
2021/05/15 06:37:40;;;;;;;3.00;2.70;;;13.00;97.30;;;;;;4958470;28;20334;-87
2021/05/15 06:40:08;;;;;;;4.57;2.93;;;13.00;97.30;;;;;;4957008;28;20723;-87
2021/05/15 06:42:34;;;;;;;4.87;3.17;;;13.00;97.30;;;;;;4953982;28;20182;-87
2021/05/15 06:45:00;;;;;;;6.17;3.13;;;13.00;97.30;;;;;;4956273;28;20568;-87
2021/05/15 06:47:25;;;;;;;4.00;2.93;;;13.20;97.30;;;;;;4973031;28;20927;-88
2021/05/15 06:49:51;;;;;;;4.30;2.93;;;13.40;97.30;;;;;;4955800;28;20186;-86
2021/05/15 06:52:17;;;;;;;4.63;3.00;;;13.50;97.30;;;;;;4973143;28;20183;-85
2021/05/15 06:54:44;;;;;;;7.00;3.07;;;13.60;97.30;;;;;;4957196;28;20187;-86
2021/05/15 06:57:09;;;;;;;6.83;3.17;;;13.70;97.30;;;;;;4957397;28;20430;-86
2021/05/15 06:59:35;;;;;;;4.20;2.90;;;13.80;97.30;;;;;;4957432;28;20441;-87
2021/05/15 07:02:07;;;;;;;4.17;3.00;;;13.80;97.30;;;;;;4960986;28;20265;-87
2021/05/15 07:04:33;;;;;;;8.13;3.03;;;13.90;97.30;;;;;;4958921;28;20306;-85
2021/05/15 07:06:58;;;;;;;3.97;3.00;;;14.00;97.30;;;;;;4957209;28;20881;-86
2021/05/15 07:09:37;;;;;;;4.17;3.07;;;14.00;97.30;;;;;;4974984;28;20182;-86
2021/05/15 07:12:03;;;;;;;4.77;2.40;;;14.00;97.30;;;;;;4957863;28;20174;-86
2021/05/15 07:14:36;;;;;;;3.40;2.97;;;14.10;97.30;;;;;;4975542;28;21146;-85
2021/05/15 07:17:04;;;;;;;4.30;2.73;;;14.30;97.30;;;;;;4958337;28;20237;-87
2021/05/15 07:19:29;;;;;;;3.50;2.63;;;14.40;97.30;;;;;;4958065;28;20536;-86
2021/05/15 07:21:55;;;;;;;3.27;2.80;;;14.50;97.30;;;;;;4958308;28;20952;-86
2021/05/15 07:24:21;;;;;;;6.13;2.40;;;14.50;97.30;;;;;;4957878;28;20206;-86
2021/05/15 07:26:46;;;;;;;6.93;2.90;;;14.60;97.30;;;;;;4958779;28;20197;-87
2021/05/15 07:29:12;;;;;;;4.73;3.20;;;14.50;97.30;;;;;;4958161;28;20202;-87
2021/05/15 07:31:37;;;;;;;2.60;2.40;;;14.50;97.30;;;;;;4975689;28;20649;-87
2021/05/15 07:34:03;;;;;;;3.97;2.80;;;14.50;97.30;;;;;;4957217;28;20758;-86
2021/05/15 07:36:31;;;;;;;6.13;2.37;;;14.60;97.30;;;;;;4953466;29;20709;-86
2021/05/15 07:39:00;;;;;;;7.00;2.70;;;14.80;97.30;;;;;;4937698;29;20230;-87
2021/05/15 07:41:27;;;;;;;6.10;2.70;;;15.00;97.30;;;;;;4955032;29;20415;-86
2021/05/15 07:43:52;;;;;;;3.90;2.90;;;15.10;97.30;;;;;;4955119;29;20462;-86
2021/05/15 07:46:36;;;;;;;3.90;2.70;;;15.20;97.30;;;;;;4954304;29;20462;-86
2021/05/15 07:49:04;;;;;;;3.87;2.80;;;15.30;97.30;;;;;;4968997;28;20179;-88
2021/05/15 07:51:29;;;;;;;6.20;2.53;;;15.30;97.30;;;;;;4945065;29;20438;-87
2021/05/15 07:53:56;;;;;;;5.73;2.90;;;15.50;97.30;;;;;;4952940;28;20453;-85
2021/05/15 07:56:21;;;;;;;4.50;2.97;;;15.70;97.30;;;;;;4956670;28;20202;-87
2021/05/15 07:58:49;;;;;;;4.17;2.63;;;15.80;97.30;;;;;;4955400;28;20418;-87
2021/05/15 08:01:15;;;;;;;5.27;2.83;;;15.80;97.30;;;;;;4956749;28;20237;-87
2021/05/15 08:03:41;;;;;;;3.43;2.50;;;15.80;97.30;;;;;;4957843;28;20434;-87
2021/05/15 08:06:07;;;;;;;4.70;2.60;;;15.90;97.20;;;;;;4975379;28;20542;-87
2021/05/15 08:08:32;;;;;;;3.70;2.40;;;15.90;97.30;;;;;;4976936;28;20426;-88
2021/05/15 08:11:03;;;;;;;4.63;2.37;;;16.10;97.30;;;;;;4959580;28;20190;-88
2021/05/15 08:13:29;;;;;;;6.40;2.43;;;16.20;97.30;;;;;;4960204;28;20174;-88
2021/05/15 08:15:56;;;;;;;6.03;2.57;;;16.20;96.40;;;;;;4961351;28;20449;-89
2021/05/15 08:18:21;;;;;;;5.30;2.00;;;16.20;95.10;;;;;;4978696;28;20186;-88
2021/05/15 08:20:47;;;;;;;3.40;1.97;;;16.20;94.70;;;;;;4958485;28;20436;-87
2021/05/15 08:23:13;;;;;;;4.00;2.40;;;16.30;95.50;;;;;;4978313;28;20183;-88
2021/05/15 08:25:39;;;;;;;3.50;2.10;;;16.40;95.20;;;;;;4959496;28;20602;-88
2021/05/15 08:28:11;;;;;;;3.17;2.30;;;16.40;93.40;;;;;;4958529;28;20192;-88
2021/05/15 08:30:37;;;;;;;2.37;2.17;;;16.20;93.40;;;;;;4957868;28;20175;-88
2021/05/15 08:33:05;;;;;;;4.90;2.47;;;16.10;93.90;;;;;;4959328;28;20418;-88
2021/05/15 08:35:31;;;;;;;3.10;2.10;;;16.00;96.00;;;;;;4960791;28;20457;-88
2021/05/15 08:37:57;;;;;;;3.57;2.40;;;16.00;96.20;;;;;;4962371;28;20432;-87
2021/05/15 08:40:27;;;;;;;5.77;2.63;;;15.80;95.80;;;;;;4963583;28;20433;-88
2021/05/15 08:42:54;;;;;;;3.57;2.47;;;15.70;96.90;;;;;;4963097;28;20437;-87
2021/05/15 08:45:22;;;;;;;4.10;2.27;;;15.60;96.50;;;;;;4963669;28;20481;-88
2021/05/15 08:47:50;;;;;;;2.80;2.00;;;15.60;95.60;;;;;;4979213;28;20422;-87
2021/05/15 08:50:19;;;;;;;2.63;2.00;;;15.60;95.30;;;;;;4958669;28;20426;-88
2021/05/15 08:52:46;;;;;;;4.80;1.90;;;15.80;95.10;;;;;;4943869;28;20429;-88
2021/05/15 08:55:17;;;;;;;3.27;1.80;;;16.10;94.40;;;;;;4960837;28;20448;-90
2021/05/15 08:57:43;;;;;;;3.70;1.90;;;16.30;94.20;;;;;;4960073;28;20425;-88
2021/05/15 09:00:12;;;;;;;6.13;1.83;;;16.40;94.20;;;;;;4959236;28;20422;-88
2021/05/15 09:02:38;;;;;;;3.70;2.10;;;16.30;93.10;;;;;;4958693;28;20672;-89
2021/05/15 09:05:07;;;;;;;3.13;1.93;;;16.20;94.30;;;;;;4957476;28;20480;-88
2021/05/15 09:07:33;;;;;;;2.93;2.07;;;16.20;92.90;;;;;;4979477;28;20414;-88
2021/05/15 09:09:58;;;;;;;3.07;2.30;;;16.10;93.50;;;;;;4958600;28;20410;-89
2021/05/15 09:12:24;;;;;;;3.70;2.27;;;16.10;94.20;;;;;;4960940;28;20671;-88
2021/05/15 09:15:01;;;;;;;3.50;2.00;;;16.30;94.50;;;;;;4959666;28;20187;-88
2021/05/15 09:17:27;;;;;;;5.63;2.00;;;16.30;94.40;;;;;;4959536;28;20552;-89
2021/05/15 09:19:54;;;;;;;3.40;1.87;;;16.50;95.10;;;;;;4971936;28;20426;-87
2021/05/15 09:22:26;;;;;;;3.80;1.90;;;16.70;93.70;;;;;;4958127;28;20193;-87
2021/05/15 09:24:52;;;;;;;2.53;1.97;;;16.90;93.90;;;;;;4957290;28;20466;-88
2021/05/15 09:27:18;;;;;;;3.73;1.70;;;17.10;91.70;;;;;;4957529;28;20497;-88
2021/05/15 09:29:49;;;;;;;2.37;1.40;;;17.40;91.00;;;;;;4955904;28;20442;-87
2021/05/15 09:32:27;;;;;;;2.73;1.60;;;17.60;87.60;;;;;;4961248;28;20430;-89
2021/05/15 09:34:53;;;;;;;1.30;1.20;;;17.50;87.40;;;;;;4964959;28;20899;-86
2021/05/15 09:37:41;;;;;;;1.80;1.43;;;17.50;85.70;;;;;;4961070;28;20422;-87
2021/05/15 09:40:15;;;;;;;2.03;1.30;;;17.40;84.20;;;;;;4963033;28;20940;-88
2021/05/15 09:42:52;;;;;;;1.80;1.40;;;17.30;84.70;;;;;;4960044;28;20422;-87
2021/05/15 09:45:23;;;;;;;1.47;1.47;;;17.40;85.40;;;;;;4952881;28;20481;-87
2021/05/15 09:47:57;;;;;;;1.90;1.43;;;17.50;85.40;;;;;;4968194;28;20433;-86
2021/05/15 09:50:44;;;;;;;1.57;1.40;;;17.60;87.00;;;;;;4972536;28;20437;-87
2021/05/15 09:53:13;;;;;;;1.80;1.60;;;17.40;85.60;;;;;;4981490;23;20486;-83
2021/05/15 09:55:44;;;;;;;2.70;1.40;;;17.40;85.80;;;;;;4956713;29;20426;-84
2021/05/15 09:58:11;;;;;;;1.87;1.30;;;17.50;85.90;;;;;;4969881;29;20502;-87
2021/05/15 10:00:55;;;;;;;1.40;1.20;;;17.80;87.40;;;;;;4959343;29;20930;-84
2021/05/15 10:03:23;;;;;;;2.63;1.40;;;18.10;85.70;;;;;;4952370;29;20445;-84
2021/05/15 10:06:05;;;;;;;3.40;1.30;;;18.30;85.60;;;;;;4935668;29;20471;-84
2021/05/15 10:08:32;;;;;;;1.60;1.20;;;18.50;84.20;;;;;;4943882;29;20415;-84
2021/05/15 10:10:59;;;;;;;1.50;1.47;;;18.50;82.90;;;;;;4949149;29;20494;-84
2021/05/15 10:13:25;;;;;;;1.87;1.57;;;18.50;83.30;;;;;;4941482;29;20475;-85
2021/05/15 10:15:51;;;;;;;2.57;1.63;;;18.40;81.70;;;;;;4934986;29;20455;-84
2021/05/15 10:18:17;;;;;;;4.10;1.80;;;18.40;83.90;;;;;;4934320;29;20286;-84
2021/05/15 10:20:44;;;;;;;2.57;1.30;;;18.50;85.60;;;;;;4934700;29;20235;-84
2021/05/15 10:23:17;;;;;;;1.60;1.50;;;18.80;84.00;;;;;;4934654;29;20506;-84
2021/05/15 10:25:43;;;;;;;1.70;1.47;;;19.00;84.50;;;;;;4934726;29;20466;-85
2021/05/15 10:28:09;;;;;;;2.03;1.40;;;19.30;84.70;;;;;;4933276;29;20435;-84
2021/05/15 10:30:35;;;;;;;3.13;1.67;;;19.40;82.80;;;;;;4933066;29;20431;-84
2021/05/15 10:33:02;;;;;;;1.80;1.60;;;18.80;83.00;;;;;;4936643;29;20446;-85
2021/05/15 10:35:40;;;;;;;2.07;1.40;;;18.30;84.60;;;;;;4940667;29;20190;-85
2021/05/15 10:38:08;;;;;;;3.10;1.87;;;17.80;85.40;;;;;;4931908;29;20912;-85
2021/05/15 10:40:43;;;;;;;2.40;1.77;;;17.80;88.00;;;;;;4932789;29;20439;-84
2021/05/15 10:43:09;;;;;;;3.77;2.07;;;18.20;87.30;;;;;;4933478;29;20590;-85
2021/05/15 10:45:40;;;;;;;2.80;1.60;;;18.40;87.80;;;;;;4933176;29;20566;-85
2021/05/15 10:48:22;;;;;;;1.70;1.40;;;18.60;85.10;;;;;;4943782;29;20673;-84
2021/05/15 10:50:51;;;;;;;1.77;1.30;;;18.80;86.10;;;;;;4938773;29;20424;-85
2021/05/15 10:53:25;;;;;;;2.30;1.60;;;19.00;82.50;;;;;;4932299;29;20569;-84
2021/05/15 10:56:24;;;;;;;2.63;1.70;;;19.20;82.70;;;;;;4933872;29;20511;-85
2021/05/15 10:58:52;;;;;;;3.73;1.40;;;19.40;82.00;;;;;;4932067;29;20422;-86
2021/05/15 11:01:23;;;;;;;2.20;1.20;;;19.70;82.80;;;;;;4927924;29;20477;-84
2021/05/15 11:03:49;;;;;;;1.83;1.37;;;19.60;80.90;;;;;;4939627;29;20436;-85
2021/05/15 11:06:18;;;;;;;1.80;1.70;;;19.80;81.30;;;;;;4943415;29;20440;-79
2021/05/15 11:08:58;;;;;;;1.47;1.30;;;19.80;81.80;;;;;;4932642;29;20868;-84
2021/05/15 11:11:42;;;;;;;2.53;1.23;;;19.40;79.80;;;;;;4929739;29;20435;-85
2021/05/15 11:14:25;;;;;;;6.10;1.40;;;19.00;80.10;;;;;;4934926;29;20478;-84
2021/05/15 11:17:12;;;;;;;1.87;1.30;;;19.00;80.00;;;;;;4937122;29;20503;-83
2021/05/15 11:20:21;;;;;;;2.67;1.53;;;18.70;80.60;;;;;;4923508;29;20438;-83
2021/05/15 11:22:52;;;;;;;1.80;1.40;;;18.40;79.40;;;;;;4911700;29;20452;-84
2021/05/15 11:25:27;;;;;;;1.77;1.60;;;18.50;80.30;;;;;;4914115;29;20478;-87
2021/05/15 11:28:04;;;;;;;1.73;1.43;;;19.00;80.50;;;;;;4930991;29;20795;-83
2021/05/15 11:30:45;;;;;;;2.53;1.50;;;19.40;79.00;;;;;;4930150;29;20420;-84
2021/05/15 11:33:17;;;;;;;1.27;1.27;;;19.70;79.70;;;;;;4933086;29;20457;-84
2021/05/15 11:35:51;;;;;;;2.33;1.50;;;19.60;78.60;;;;;;4930604;29;20427;-84
2021/05/15 11:38:28;;;;;;;5.73;1.30;;;19.90;80.20;;;;;;4931420;29;20445;-85
2021/05/15 11:41:01;;;;;;;1.63;1.40;;;20.00;77.40;;;;;;4930534;29;20440;-84
2021/05/15 11:43:29;;;;;;;1.90;1.50;;;20.20;77.10;;;;;;4926486;29;20498;-85
2021/05/15 11:45:56;;;;;;;2.33;1.67;;;19.90;77.40;;;;;;4929057;29;20888;-84
2021/05/15 11:48:24;;;;;;;2.10;1.23;;;19.70;78.40;;;;;;4926805;29;20428;-84
2021/05/15 11:51:11;;;;;;;1.47;1.40;;;19.40;79.30;;;;;;4936636;29;20450;-84
2021/05/15 11:53:41;;;;;;;2.87;1.97;;;18.90;78.20;;;;;;4931481;29;20468;-83
2021/05/15 11:56:15;;;;;;;1.70;1.57;;;18.70;79.70;;;;;;4928367;29;20463;-85
2021/05/15 11:58:52;;;;;;;2.40;1.50;;;18.60;80.30;;;;;;4933584;29;20479;-87
2021/05/15 12:01:26;;;;;;;1.20;1.00;;;19.00;81.80;;;;;;4945151;29;20427;-85
2021/05/15 12:04:07;;;;;;;1.33;1.30;;;19.60;80.10;;;;;;4940048;29;20976;-85
2021/05/15 12:06:33;;;;;;;1.70;1.40;;;19.80;80.70;;;;;;4936783;29;20436;-86
2021/05/15 12:08:59;;;;;;;1.37;1.27;;;20.30;78.20;;;;;;4955774;29;20446;-86
2021/05/15 12:11:26;;;;;;;2.50;1.20;;;19.80;77.40;;;;;;4953717;29;20492;-85
2021/05/15 12:13:53;;;;;;;2.30;1.40;;;19.70;76.60;;;;;;4949443;29;20243;-85
2021/05/15 12:16:20;;;;;;;3.77;1.33;;;19.80;76.90;;;;;;4950103;29;20428;-87
2021/05/15 12:18:46;;;;;;;1.70;1.60;;;20.20;77.70;;;;;;4941555;29;20440;-86
2021/05/15 12:21:12;;;;;;;1.83;1.50;;;20.50;77.40;;;;;;4946272;29;20430;-84
2021/05/15 12:23:38;;;;;;;2.30;1.50;;;20.50;76.10;;;;;;4936975;29;20259;-87
2021/05/15 12:26:07;;;;;;;1.43;1.30;;;20.60;76.70;;;;;;4927629;29;20468;-84
2021/05/15 12:28:47;;;;;;;1.33;1.13;;;20.80;75.50;;;;;;4933162;29;20239;-84
2021/05/15 12:31:28;;;;;;;3.13;1.40;;;20.60;75.50;;;;;;4928798;29;20523;-84
2021/05/15 12:33:57;;;;;;;1.83;1.43;;;20.70;76.50;;;;;;4930951;29;20502;-84
2021/05/15 12:36:24;;;;;;;2.13;1.20;;;20.10;75.50;;;;;;4926405;29;20447;-84
2021/05/15 12:38:55;;;;;;;1.30;1.20;;;20.00;77.30;;;;;;4934544;29;20431;-83
2021/05/15 12:41:23;;;;;;;1.30;1.30;;;20.20;77.20;;;;;;4936955;29;20797;-83
2021/05/15 12:44:08;;;;;;;1.77;1.50;;;20.00;77.20;;;;;;4933584;29;20438;-85
2021/05/15 12:46:37;;;;;;;1.40;1.30;;;19.60;78.20;;;;;;4936388;29;20428;-85
2021/05/15 12:49:06;;;;;;;1.50;1.30;;;19.50;77.20;;;;;;4936714;29;20420;-84